Dutch Harbor, AK

3:34 AM AKDT on July 23, 2014 (GMT -0800)
Dutch Harbor (PADU) Elev 13 ft | 53.90 °N, 166.54 °W | Change Station

Current weather conditions updated 38 minutes ago

Overcast
Overcast
55 °F
Feels Like 55 °F
N
15
Wind Variable Wind from South

Today is forecast to be Cooler than yesterday.

Today
High -- | Low -- °F
--% Chance of Precip.
Yesterday
High -- | Low -- °F
Precip. -- in
7:05 AM 11:18 PM
Waning Crescent, 11% visible
Pressure 30.19 in
Visibility 10.0 miles
Clouds Overcast 9000 ft
Dew Point 48 °F
Humidity 77%
Rainfall 0.00 in
Snow Depth Not available.
UV 0 out of 12
Pollen Not available.
Air Quality Not available.
Flu Activity Not available.
METAR PADU 231056Z AUTO 19013KT 10SM OVC090 13/09 A3018 RMK AO2 SLP223 T01280089

More Conditions Fewer Conditions

Pressure 30.19 in
Visibility 10.0 miles
Clouds Overcast 9000 ft
Dew Point 48 °F
Humidity 77%
Rainfall 0.00 in
Snow Depth Not available.
UV 0 out of 12
Pollen Not available.
Air Quality Not available.
Flu Activity Not available.
METAR PADU 231056Z AUTO 19013KT 10SM OVC090 13/09 A3018 RMK AO2 SLP223 T01280089

More Conditions Fewer Conditions

10-Day Weather Forecast

Almanac

Astronomy

Jul. 23, 2014 Rise Set
Actual Time 7:05 AM AKDT 11:18 PM AKDT
Civil Twilight 6:18 AM AKDT 12:05 AM AKDT
Nautical Twilight 5:08 AM AKDT 1:14 AM AKDT
Astronomical Twilight 3:45 AM AKDT 2:40 AM AKDT
Moon 4:39 AM AKDT 8:53 PM AKDT
Length of Visible Light 17h 46m
Length of Day
16h 12m
Tomorrow will be 3m 5s shorter.
Waning Crescent, 11% of the Moon is Illuminated
Today
Waning Crescent
Jul 26
New
Aug 3
First Quarter
Aug 10
Full
Aug 17
Last Quarter

Today's Extremes

State Highs State Lows

Community

WunderPhotos

Upload Photos

1,736,560 photos uploaded!

Nearby

Snow Depth

Station Depth Elevation
Port Graham 0 in 300 ft
Mcneil Canyon 1 in 1320 ft
MF Bradley River 26 in 2300 ft
Nuka Glacier 109 in 1250 ft
Rocky Point 1 in 500 ft

Earthquake Activity

City Distance Mag. Time & Date
No recent earthquake activity has been reported nearby.
Minimum magnitude displayed is 2.5.

Coastal Water Temperatures

Place Temperature
No Stations Reporting

Nearby Weather Stations

There are no personal weather stations in this area.